Time;durP1;ratioP1;P1;durP2;ratioP2;P2;SDS_P1;SDS_P2;PMS_P1;PMS_P2;Temp;Humidity;BMP_temperature;BMP_pressure;BME280_temperature;BME280_humidity;BME280_pressure;Samples;Min_cycle;Max_cycle;Signal;HPM_P1;HPM_P2
2021/12/30 00:01:21;;;;;;;;;;;;;;;10.20;100.00;101051.84;5053752;28;19924;-69
2021/12/30 00:03:47;;;;;;;;;;;;;;;10.18;100.00;101044.00;5053596;28;19917;-68
2021/12/30 00:06:12;;;;;;;;;;;;;;;10.17;100.00;101046.75;5052258;28;19917;-68
2021/12/30 00:08:38;;;;;;;;;;;;;;;10.17;100.00;101052.06;5066106;28;20044;-68
2021/12/30 00:11:03;;;;;;;;;;;;;;;10.17;100.00;101052.94;5048582;28;19923;-68
2021/12/30 00:13:28;;;;;;;;;;;;;;;10.16;100.00;101045.91;5053949;28;19924;-68
2021/12/30 00:15:54;;;;;;;;;;;;;;;10.17;100.00;101052.94;5053762;28;19959;-68
2021/12/30 00:18:19;;;;;;;;;;;;;;;10.18;100.00;101048.47;5054752;28;19919;-69
2021/12/30 00:20:46;;;;;;;;;;;;;;;10.18;100.00;101049.31;5043437;28;19920;-68
2021/12/30 00:23:11;;;;;;;;;;;;;;;10.18;100.00;101051.97;5050070;28;20502;-68
2021/12/30 00:25:41;;;;;;;;;;;;;;;10.19;100.00;101051.00;5051936;28;19952;-68
2021/12/30 00:28:08;;;;;;;;;;;;;;;10.21;100.00;101050.03;5053735;28;19912;-68
2021/12/30 00:30:33;;;;;;;;;;;;;;;10.22;100.00;101051.75;5051580;28;20367;-68
2021/12/30 00:32:58;;;;;;;;;;;;;;;10.22;100.00;101049.09;5053753;28;19912;-68
2021/12/30 00:35:24;;;;;;;;;;;;;;;10.22;100.00;101049.09;5041413;28;19924;-68
2021/12/30 00:37:49;;;;;;;;;;;;;;;10.21;100.00;101053.56;5053318;28;19955;-68
2021/12/30 00:40:14;;;;;;;;;;;;;;;10.23;100.00;101066.72;5053025;28;19924;-68
2021/12/30 00:42:39;;;;;;;;;;;;;;;10.24;100.00;101063.97;5052526;28;20004;-68
2021/12/30 00:45:05;;;;;;;;;;;;;;;10.25;100.00;101070.13;5052296;28;19913;-67
2021/12/30 00:47:30;;;;;;;;;;;;;;;10.27;100.00;101070.84;5050769;28;19916;-68
2021/12/30 00:49:56;;;;;;;;;;;;;;;10.26;100.00;101075.31;5054068;28;19913;-69
2021/12/30 00:52:22;;;;;;;;;;;;;;;10.29;100.00;101076.88;5049989;28;20356;-68
2021/12/30 00:54:47;;;;;;;;;;;;;;;10.30;100.00;101079.44;5052657;28;19927;-68
2021/12/30 00:57:12;;;;;;;;;;;;;;;10.32;100.00;101082.00;5050812;28;20019;-68
2021/12/30 00:59:37;;;;;;;;;;;;;;;10.34;100.00;101077.44;5051544;28;19919;-68
2021/12/30 01:02:03;;;;;;;;;;;;;;;10.35;100.00;101079.97;5050325;28;20389;-68
2021/12/30 01:04:28;;;;;;;;;;;;;;;10.37;100.00;101079.88;5051038;28;19924;-68
2021/12/30 01:06:53;;;;;;;;;;;;;;;10.40;100.00;101077.00;5051425;28;19949;-68
2021/12/30 01:09:19;;;;;;;;;;;;;;;10.41;100.00;101076.06;5046542;28;20004;-69
2021/12/30 01:11:44;;;;;;;;;;;;;;;10.43;100.00;101074.13;5052735;28;19919;-68
2021/12/30 01:14:17;;;;;;;;;;;;;;;10.46;100.00;101081.00;5047598;28;19917;-69
2021/12/30 01:16:45;;;;;;;;;;;;;;;10.49;100.00;101091.41;5053204;28;19913;-68
2021/12/30 01:21:45;;;;;;;;;;;;;;;10.53;100.00;101093.75;5052252;28;19921;-68
2021/12/30 01:24:10;;;;;;;;;;;;;;;10.55;100.00;101091.81;5052841;28;19913;-69
2021/12/30 01:26:36;;;;;;;;;;;;;;;10.58;100.00;101088.09;5050002;28;19974;-68
2021/12/30 01:29:01;;;;;;;;;;;;;;;10.60;100.00;101088.00;5053187;28;19923;-68
2021/12/30 01:31:26;;;;;;;;;;;;;;;10.60;100.00;101085.34;5053296;28;19912;-68
2021/12/30 01:33:51;;;;;;;;;;;;;;;10.63;100.00;101093.09;5053939;28;19913;-68
2021/12/30 01:36:17;;;;;;;;;;;;;;;10.64;100.00;101092.09;5047685;28;19990;-69
2021/12/30 01:38:43;;;;;;;;;;;;;;;10.67;100.00;101090.06;5056496;28;20020;-68
2021/12/30 01:41:09;;;;;;;;;;;;;;;10.71;100.00;101096.03;5056342;28;19917;-68
2021/12/30 01:43:35;;;;;;;;;;;;;;;10.74;100.00;101095.78;5055198;28;20295;-69
2021/12/30 01:46:01;;;;;;;;;;;;;;;10.77;100.00;101092.06;5045230;28;20159;-68
2021/12/30 01:48:26;;;;;;;;;;;;;;;10.80;100.00;101086.53;5057122;28;19962;-69
2021/12/30 01:50:52;;;;;;;;;;;;;;;10.82;100.00;101088.09;5055924;28;19912;-68
2021/12/30 01:53:17;;;;;;;;;;;;;;;10.86;100.00;101094.91;5048382;28;20302;-68
2021/12/30 01:55:42;;;;;;;;;;;;;;;10.87;100.00;101083.28;5056000;28;19913;-68
2021/12/30 01:58:08;;;;;;;;;;;;;;;10.91;100.00;101092.75;5057790;28;19917;-68
2021/12/30 02:00:33;;;;;;;;;;;;;;;10.94;100.00;101094.31;5051350;28;19912;-68
2021/12/30 02:03:00;;;;;;;;;;;;;;;10.94;100.00;101075.72;5070014;28;19923;-68
2021/12/30 02:05:25;;;;;;;;;;;;;;;10.98;100.00;101081.66;5047356;28;20350;-68
2021/12/30 02:07:51;;;;;;;;;;;;;;;10.99;100.00;101088.66;5053233;28;19953;-68
2021/12/30 02:10:16;;;;;;;;;;;;;;;11.00;100.00;101085.06;5049273;28;19917;-68
2021/12/30 02:12:42;;;;;;;;;;;;;;;11.02;100.00;101088.44;5052391;28;20011;-68
2021/12/30 02:15:09;;;;;;;;;;;;;;;11.03;100.00;101088.31;5069294;28;19978;-68
2021/12/30 02:17:34;;;;;;;;;;;;;;;11.06;100.00;101089.91;5055908;28;19920;-68
2021/12/30 02:20:01;;;;;;;;;;;;;;;11.06;100.00;101090.75;5048353;28;20299;-68
2021/12/30 02:22:26;;;;;;;;;;;;;;;11.08;100.00;101094.13;5056461;28;19971;-68
2021/12/30 02:24:52;;;;;;;;;;;;;;;11.10;100.00;101086.06;5040171;28;20380;-68
2021/12/30 02:27:18;;;;;;;;;;;;;;;11.10;100.00;101092.22;5054924;28;19916;-68
2021/12/30 02:29:43;;;;;;;;;;;;;;;11.13;100.00;101091.16;5049372;28;20386;-68
2021/12/30 02:32:08;;;;;;;;;;;;;;;11.14;100.00;101091.97;5050640;28;19913;-69
2021/12/30 02:34:33;;;;;;;;;;;;;;;11.16;100.00;101087.38;5054334;28;19917;-68
2021/12/30 02:36:59;;;;;;;;;;;;;;;11.19;100.00;101096.00;5051183;28;20375;-68
2021/12/30 02:39:24;;;;;;;;;;;;;;;11.20;100.00;101096.84;5056372;28;19912;-69
2021/12/30 02:41:50;;;;;;;;;;;;;;;11.23;100.00;101094.81;5055837;28;19923;-68
2021/12/30 02:44:16;;;;;;;;;;;;;;;11.25;100.00;101094.69;5055586;28;19912;-68
2021/12/30 02:46:41;;;;;;;;;;;;;;;11.26;100.00;101089.25;5044726;28;19935;-68
2021/12/30 02:49:07;;;;;;;;;;;;;;;11.29;100.00;101093.47;5055444;28;19912;-68
2021/12/30 02:51:32;;;;;;;;;;;;;;;11.32;100.00;101095.91;5054947;28;19908;-68
2021/12/30 02:53:57;;;;;;;;;;;;;;;11.33;100.00;101094.97;5052988;28;19970;-69
2021/12/30 02:56:23;;;;;;;;;;;;;;;11.34;100.00;101101.13;5048536;28;20007;-69
2021/12/30 02:58:48;;;;;;;;;;;;;;;11.35;100.00;101100.16;5047938;28;19917;-69
2021/12/30 03:01:16;;;;;;;;;;;;;;;11.36;100.00;101104.50;5044443;28;19922;-69
2021/12/30 03:03:41;;;;;;;;;;;;;;;11.37;100.00;101106.19;5047053;28;19964;-69
2021/12/30 03:06:07;;;;;;;;;;;;;;;11.36;100.00;101096.53;5052199;28;19959;-69
2021/12/30 03:08:33;;;;;;;;;;;;;;;11.36;100.00;101105.38;5065887;28;19912;-68
2021/12/30 03:10:58;;;;;;;;;;;;;;;11.37;100.00;101109.69;5051325;28;20364;-68
2021/12/30 03:13:30;;;;;;;;;;;;;;;11.39;100.00;101106.94;5046081;28;19912;-68
2021/12/30 03:15:56;;;;;;;;;;;;;;;11.39;100.00;101107.81;5052200;28;19935;-68
2021/12/30 03:18:22;;;;;;;;;;;;;;;11.38;100.00;101107.91;5052099;28;20418;-68
2021/12/30 03:20:47;;;;;;;;;;;;;;;11.39;100.00;101106.94;5036993;28;20012;-68
2021/12/30 03:23:12;;;;;;;;;;;;;;;11.39;100.00;101107.81;5031995;28;19964;-68
2021/12/30 03:25:37;;;;;;;;;;;;;;;11.41;100.00;101113.00;5032140;28;19917;-68
2021/12/30 03:28:02;;;;;;;;;;;;;;;11.41;100.00;101115.66;5032127;28;19979;-69
2021/12/30 03:30:31;;;;;;;;;;;;;;;11.41;100.00;101111.19;5032084;28;19917;-69
2021/12/30 03:32:56;;;;;;;;;;;;;;;11.42;100.00;101112.88;5031904;28;19913;-69
2021/12/30 03:35:21;;;;;;;;;;;;;;;11.44;100.00;101107.44;5032051;28;20257;-69
2021/12/30 03:37:46;;;;;;;;;;;;;;;11.44;100.00;101099.44;5031676;28;19913;-69
2021/12/30 03:40:13;;;;;;;;;;;;;;;11.45;100.00;101103.81;5031786;28;19916;-69
2021/12/30 03:42:38;;;;;;;;;;;;;;;11.47;100.00;101112.50;5049718;28;19916;-69
2021/12/30 03:45:07;;;;;;;;;;;;;;;11.48;100.00;101109.75;5062326;28;20291;-69
2021/12/30 03:47:35;;;;;;;;;;;;;;;11.48;100.00;101109.75;5052963;28;19959;-69
2021/12/30 03:50:00;;;;;;;;;;;;;;;11.50;100.00;101111.44;5045269;28;20341;-69
2021/12/30 03:52:30;;;;;;;;;;;;;;;11.53;100.00;101108.56;5047421;28;19970;-69
2021/12/30 03:54:55;;;;;;;;;;;;;;;11.55;100.00;101110.13;5037611;28;20382;-69
2021/12/30 03:57:21;;;;;;;;;;;;;;;11.57;100.00;101110.84;5037009;28;19920;-69
2021/12/30 03:59:46;;;;;;;;;;;;;;;11.59;100.00;101114.25;5049080;28;19913;-69
2021/12/30 04:02:11;;;;;;;;;;;;;;;11.61;100.00;101111.47;5042423;28;20127;-69
2021/12/30 04:04:36;;;;;;;;;;;;;;;11.62;100.00;101107.84;5044619;28;19915;-69
2021/12/30 04:07:01;;;;;;;;;;;;;;;11.65;100.00;101111.09;5033024;28;20342;-69
2021/12/30 04:09:27;;;;;;;;;;;;;;;11.67;100.00;101113.66;5050460;28;20429;-69
2021/12/30 04:11:52;;;;;;;;;;;;;;;11.70;100.00;101105.44;5055550;28;19982;-69
2021/12/30 04:14:18;;;;;;;;;;;;;;;11.72;100.00;101116.81;5033074;28;19963;-69
2021/12/30 04:16:43;;;;;;;;;;;;;;;11.74;100.00;101117.56;5042111;28;19912;-69
2021/12/30 04:19:08;;;;;;;;;;;;;;;11.76;100.00;101120.94;5036244;28;19917;-69
2021/12/30 04:21:33;;;;;;;;;;;;;;;11.80;100.00;101132.19;5031264;28;20414;-69
2021/12/30 04:23:58;;;;;;;;;;;;;;;11.81;100.00;101126.75;5045868;28;19919;-69
2021/12/30 04:26:24;;;;;;;;;;;;;;;11.85;100.00;101127.34;5039608;28;20269;-69
2021/12/30 04:28:49;;;;;;;;;;;;;;;11.89;100.00;101125.28;5043595;28;19913;-69
2021/12/30 04:31:14;;;;;;;;;;;;;;;11.89;100.00;101128.81;5035722;28;19913;-68
2021/12/30 04:33:40;;;;;;;;;;;;;;;11.92;100.00;101131.25;5031131;28;19912;-68
2021/12/30 04:36:06;;;;;;;;;;;;;;;11.94;100.00;101134.66;5044859;28;19916;-69
2021/12/30 04:38:31;;;;;;;;;;;;;;;11.94;100.00;101134.66;5036618;28;20303;-68
2021/12/30 04:40:57;;;;;;;;;;;;;;;11.95;100.00;101125.69;5034175;28;19912;-69
2021/12/30 04:43:22;;;;;;;;;;;;;;;11.97;100.00;101126.44;5050821;28;19923;-68
2021/12/30 04:45:48;;;;;;;;;;;;;;;11.98;100.00;101133.44;5050717;28;19913;-68
2021/12/30 04:48:16;;;;;;;;;;;;;;;11.99;100.00;101132.50;5045119;28;20063;-69
2021/12/30 04:50:44;;;;;;;;;;;;;;;12.01;100.00;101146.53;5050367;28;19975;-69
2021/12/30 04:53:10;;;;;;;;;;;;;;;12.01;100.00;101140.38;5040785;28;19924;-68
2021/12/30 04:55:35;;;;;;;;;;;;;;;12.03;100.00;101141.91;5050055;28;19935;-69
2021/12/30 04:58:00;;;;;;;;;;;;;;;12.06;100.00;101147.97;5063420;28;19913;-68
2021/12/30 05:00:25;;;;;;;;;;;;;;;12.08;100.00;101143.41;5050292;28;19953;-68
2021/12/30 05:03:07;;;;;;;;;;;;;;;12.10;100.00;101144.13;5035891;28;20275;-68
2021/12/30 05:05:33;;;;;;;;;;;;;;;12.11;100.00;101153.81;5050323;28;20421;-68
2021/12/30 05:07:58;;;;;;;;;;;;;;;12.12;100.00;101148.34;5051223;28;19912;-68
2021/12/30 05:10:23;;;;;;;;;;;;;;;12.13;100.00;101144.72;5051686;28;19923;-68
2021/12/30 05:12:49;;;;;;;;;;;;;;;12.15;100.00;101156.09;5054878;28;20437;-68
2021/12/30 05:15:14;;;;;;;;;;;;;;;12.18;100.00;101155.84;5051306;28;19920;-68
2021/12/30 05:17:41;;;;;;;;;;;;;;;12.19;100.00;101160.22;5054504;28;19913;-68
2021/12/30 05:20:06;;;;;;;;;;;;;;;12.20;100.00;101169.03;5050691;28;20430;-68
2021/12/30 05:22:32;;;;;;;;;;;;;;;12.21;100.00;101174.25;5066681;28;19913;-68
2021/12/30 05:24:57;;;;;;;;;;;;;;;12.25;100.00;101171.34;5055955;28;19912;-69
2021/12/30 05:27:22;;;;;;;;;;;;;;;12.27;100.00;101166.75;5050414;28;19923;-68
2021/12/30 05:29:47;;;;;;;;;;;;;;;12.28;100.00;101171.97;5054259;28;19919;-68
2021/12/30 05:32:13;;;;;;;;;;;;;;;12.28;100.00;101179.09;5048471;28;19964;-68
2021/12/30 05:34:38;;;;;;;;;;;;;;;12.31;100.00;101189.53;5054300;28;19958;-69
2021/12/30 05:37:03;;;;;;;;;;;;;;;12.33;100.00;101184.91;5054332;28;20287;-68
2021/12/30 05:39:29;;;;;;;;;;;;;;;12.34;100.00;101183.94;5039843;28;19920;-68
2021/12/30 05:41:55;;;;;;;;;;;;;;;12.36;100.00;101195.34;5045767;28;19943;-68
2021/12/30 05:44:20;;;;;;;;;;;;;;;12.36;100.00;101196.19;5051005;28;19913;-68
2021/12/30 05:46:45;;;;;;;;;;;;;;;12.39;100.00;101203.94;5055693;28;19971;-69
2021/12/30 05:49:10;;;;;;;;;;;;;;;12.41;100.00;101201.16;5054370;28;19917;-68
2021/12/30 05:51:35;;;;;;;;;;;;;;;12.44;100.00;101205.38;5054693;28;19959;-68
2021/12/30 05:54:00;;;;;;;;;;;;;;;12.45;100.00;101215.06;5053611;28;19959;-68
2021/12/30 05:56:26;;;;;;;;;;;;;;;12.45;100.00;101213.25;5053889;28;19916;-68
2021/12/30 05:58:51;;;;;;;;;;;;;;;12.44;100.00;101210.69;5051542;28;20390;-68
2021/12/30 06:01:16;;;;;;;;;;;;;;;12.45;100.00;101213.25;5053916;28;19966;-68
2021/12/30 06:03:41;;;;;;;;;;;;;;;12.46;100.00;101206.97;5053492;28;19913;-68
2021/12/30 06:06:06;;;;;;;;;;;;;;;12.49;100.00;101201.41;5042699;28;19916;-68
2021/12/30 06:08:31;;;;;;;;;;;;;;;12.47;100.00;101205.97;5050829;28;19917;-68
2021/12/30 06:10:57;;;;;;;;;;;;;;;12.49;100.00;101203.19;5052551;28;20283;-68
2021/12/30 06:13:22;;;;;;;;;;;;;;;12.48;100.00;101198.84;5061769;28;19913;-68
2021/12/30 06:15:47;;;;;;;;;;;;;;;12.47;100.00;101197.97;5050494;28;19962;-68
2021/12/30 06:18:12;;;;;;;;;;;;;;;12.45;100.00;101201.75;5045544;28;20007;-67
2021/12/30 06:20:37;;;;;;;;;;;;;;;12.45;100.00;101210.59;5050206;28;19917;-67
2021/12/30 06:23:03;;;;;;;;;;;;;;;12.46;100.00;101214.13;5054343;28;19912;-68
2021/12/30 06:25:28;;;;;;;;;;;;;;;12.48;100.00;101215.66;5053874;28;19916;-67
2021/12/30 06:27:53;;;;;;;;;;;;;;;12.47;100.00;101211.31;5050665;28;19921;-69
2021/12/30 06:30:18;;;;;;;;;;;;;;;12.49;100.00;101213.84;5045592;28;20363;-68
2021/12/30 06:32:43;;;;;;;;;;;;;;;12.49;100.00;101211.19;5040846;28;19951;-68
2021/12/30 06:35:09;;;;;;;;;;;;;;;12.48;100.00;101205.00;5052854;28;20003;-68
2021/12/30 06:37:35;;;;;;;;;;;;;;;12.47;100.00;101203.31;5053450;28;19913;-68
2021/12/30 06:40:00;;;;;;;;;;;;;;;12.49;100.00;101209.38;5051310;28;19912;-68
2021/12/30 06:42:25;;;;;;;;;;;;;;;12.50;100.00;101213.72;5048659;28;20276;-68
2021/12/30 06:44:51;;;;;;;;;;;;;;;12.52;100.00;101213.59;5053761;28;19913;-67
2021/12/30 06:47:16;;;;;;;;;;;;;;;12.50;100.00;101213.72;5055987;28;19970;-68
2021/12/30 06:49:41;;;;;;;;;;;;;;;12.53;100.00;101224.16;5046536;28;19912;-67
2021/12/30 06:52:08;;;;;;;;;;;;;;;12.54;100.00;101219.66;5054261;28;19917;-67
2021/12/30 06:54:33;;;;;;;;;;;;;;;12.54;100.00;101225.00;5052246;28;19941;-67
2021/12/30 06:57:00;;;;;;;;;;;;;;;12.52;100.00;101229.59;5053084;28;19913;-68
2021/12/30 06:59:26;;;;;;;;;;;;;;;12.50;100.00;101224.38;5048698;28;19920;-67
2021/12/30 07:01:51;;;;;;;;;;;;;;;12.50;100.00;101237.72;5051713;28;19916;-67
2021/12/30 07:04:16;;;;;;;;;;;;;;;12.52;100.00;101245.59;5064402;28;19912;-68
2021/12/30 07:06:41;;;;;;;;;;;;;;;12.52;100.00;101242.91;5054260;28;20009;-68
2021/12/30 07:09:06;;;;;;;;;;;;;;;12.51;100.00;101243.91;5055525;28;19919;-68
2021/12/30 07:11:32;;;;;;;;;;;;;;;12.51;100.00;101247.41;5052480;28;19931;-68
2021/12/30 07:13:57;;;;;;;;;;;;;;;12.53;100.00;101252.63;5047776;28;20383;-68
2021/12/30 07:16:22;;;;;;;;;;;;;;;12.54;100.00;101256.97;5046073;28;19920;-68
2021/12/30 07:18:47;;;;;;;;;;;;;;;12.52;100.00;101257.13;5048749;28;19917;-68
2021/12/30 07:21:13;;;;;;;;;;;;;;;12.52;100.00;101262.44;5039581;28;20435;-68
2021/12/30 07:23:39;;;;;;;;;;;;;;;12.52;100.00;101269.56;5044633;28;19920;-68
2021/12/30 07:26:04;;;;;;;;;;;;;;;12.53;100.00;101274.78;5041454;28;19927;-68
2021/12/30 07:28:29;;;;;;;;;;;;;;;12.52;100.00;101282.88;5041182;28;19935;-68
2021/12/30 07:30:54;;;;;;;;;;;;;;;12.51;100.00;101276.72;5036634;28;19928;-68
2021/12/30 07:33:19;;;;;;;;;;;;;;;12.51;100.00;101275.88;5034216;28;19939;-68
2021/12/30 07:35:45;;;;;;;;;;;;;;;12.52;100.00;101285.56;5039302;28;19923;-68
2021/12/30 07:38:10;;;;;;;;;;;;;;;12.53;100.00;101281.94;5041508;28;20344;-68
2021/12/30 07:40:35;;;;;;;;;;;;;;;12.54;100.00;101289.81;5036636;28;20418;-68
2021/12/30 07:43:00;;;;;;;;;;;;;;;12.58;100.00;101290.41;5032480;28;19956;-68
2021/12/30 07:45:26;;;;;;;;;;;;;;;12.57;100.00;101286.03;5033073;28;19917;-68
2021/12/30 07:47:53;;;;;;;;;;;;;;;12.58;100.00;101287.75;5049474;28;19986;-68
2021/12/30 07:50:18;;;;;;;;;;;;;;;12.59;100.00;101286.78;5043366;28;20066;-68
2021/12/30 07:52:43;;;;;;;;;;;;;;;12.58;100.00;101299.25;5032217;28;20400;-69
2021/12/30 07:55:09;;;;;;;;;;;;;;;12.59;100.00;101292.97;5038421;28;19916;-72
2021/12/30 07:57:35;;;;;;;;;;;;;;;12.61;100.00;101299.97;5047103;28;19972;-68
2021/12/30 08:00:01;;;;;;;;;;;;;;;12.61;100.00;101298.16;5044115;28;20003;-69
2021/12/30 08:02:26;;;;;;;;;;;;;;;12.63;100.00;101280.25;5043731;28;19960;-69
2021/12/30 08:04:52;;;;;;;;;;;;;;;12.63;100.00;101290.06;5050857;28;20018;-70
2021/12/30 08:07:21;;;;;;;;;;;;;;;12.64;100.00;101273.94;5046518;28;20338;-69
2021/12/30 08:09:46;;;;;;;;;;;;;;;12.64;100.00;101276.63;5051563;28;19912;-69
2021/12/30 08:12:11;;;;;;;;;;;;;;;12.63;100.00;101287.41;5050305;28;20435;-69
2021/12/30 08:14:36;;;;;;;;;;;;;;;12.62;100.00;101294.50;5043007;28;19917;-69
2021/12/30 08:17:02;;;;;;;;;;;;;;;12.61;100.00;101302.63;5044965;28;19920;-69
2021/12/30 08:19:27;;;;;;;;;;;;;;;12.61;100.00;101308.81;5049785;28;20429;-67
2021/12/30 08:21:52;;;;;;;;;;;;;;;12.59;100.00;101316.94;5052309;28;19922;-70
2021/12/30 08:24:17;;;;;;;;;;;;;;;12.60;100.00;101317.78;5034071;28;20363;-69
2021/12/30 08:26:43;;;;;;;;;;;;;;;12.62;100.00;101325.66;5030702;28;19909;-69
2021/12/30 08:29:08;;;;;;;;;;;;;;;12.62;100.00;101325.66;5037881;28;19913;-69
2021/12/30 08:31:34;;;;;;;;;;;;;;;12.64;100.00;101316.59;5039617;28;19916;-69
2021/12/30 08:33:59;;;;;;;;;;;;;;;12.64;100.00;101311.25;5036646;28;19916;-69
2021/12/30 08:36:24;;;;;;;;;;;;;;;12.64;100.00;101313.94;5041811;28;20011;-69
2021/12/30 08:38:49;;;;;;;;;;;;;;;12.65;100.00;101317.44;5049468;28;20360;-69
2021/12/30 08:41:15;;;;;;;;;;;;;;;12.66;100.00;101321.81;5042984;28;20027;-69
2021/12/30 08:43:40;;;;;;;;;;;;;;;12.65;100.00;101320.09;5043417;28;19916;-69
2021/12/30 08:46:05;;;;;;;;;;;;;;;12.63;100.00;101325.53;5035165;28;20235;-69
2021/12/30 08:48:31;;;;;;;;;;;;;;;12.63;100.00;101327.38;5039841;28;20324;-69
2021/12/30 08:50:56;;;;;;;;;;;;;;;12.66;100.00;101335.13;5046299;28;19917;-69
2021/12/30 08:53:25;;;;;;;;;;;;;;;12.65;100.00;101350.25;5045878;28;19920;-69
2021/12/30 08:55:50;;;;;;;;;;;;;;;12.66;100.00;101361.78;5051636;28;19920;-69
2021/12/30 08:58:15;;;;;;;;;;;;;;;12.67;100.00;101371.44;5046729;28;19917;-69
2021/12/30 09:00:42;;;;;;;;;;;;;;;12.70;100.00;101366.72;5046954;28;19935;-69
2021/12/30 09:03:08;;;;;;;;;;;;;;;12.72;100.00;101370.16;5043207;28;19917;-70
2021/12/30 09:05:35;;;;;;;;;;;;;;;12.74;100.00;101357.53;5051360;28;20352;-70
2021/12/30 09:08:00;;;;;;;;;;;;;;;12.74;100.00;101368.19;5053359;28;19913;-70
2021/12/30 09:10:25;;;;;;;;;;;;;;;12.76;100.00;101363.59;5039303;28;20390;-71
2021/12/30 09:12:51;;;;;;;;;;;;;;;12.78;100.00;101361.66;5052377;28;19912;-69
2021/12/30 09:15:17;;;;;;;;;;;;;;;12.85;100.00;101347.84;5049020;28;19923;-70
2021/12/30 09:17:44;;;;;;;;;;;;;;;12.85;100.00;101354.03;5051025;28;19921;-70
2021/12/30 09:20:10;;;;;;;;;;;;;;;12.89;100.00;101354.63;5053947;28;20398;-70
2021/12/30 09:22:36;;;;;;;;;;;;;;;12.94;100.00;101363.16;5052717;28;19913;-72
2021/12/30 09:25:05;;;;;;;;;;;;;;;12.98;100.00;101369.91;5034247;28;19917;-73
2021/12/30 09:27:31;;;;;;;;;;;;;;;13.03;100.00;101372.22;5032838;28;19913;-70
2021/12/30 09:29:56;;;;;;;;;;;;;;;13.08;100.00;101370.06;5039777;28;19924;-72
2021/12/30 09:32:21;;;;;;;;;;;;;;;13.10;100.00;101378.78;5050951;28;19932;-73
2021/12/30 09:34:47;;;;;;;;;;;;;;;13.14;100.00;101386.41;5044161;28;20027;-69
2021/12/30 09:37:12;;;;;;;;;;;;;;;13.17;100.00;101387.97;5033644;28;19924;-71
2021/12/30 09:39:37;;;;;;;;;;;;;;;13.19;100.00;101386.06;5049647;28;19960;-71
2021/12/30 09:42:03;;;;;;;;;;;;;;;13.22;100.00;101390.28;5049244;28;19912;-70
2021/12/30 09:44:28;;;;;;;;;;;;;;;13.24;100.00;101385.66;5042703;28;19912;-71
2021/12/30 09:46:53;;;;;;;;;;;;;;;13.25;99.32;101390.88;5050091;28;19999;-70
2021/12/30 09:49:19;;;;;;;;;;;;;;;13.31;99.94;101410.91;5051688;28;19908;-71
2021/12/30 09:51:45;;;;;;;;;;;;;;;13.28;99.50;101401.31;5050258;28;19959;-70
2021/12/30 09:54:10;;;;;;;;;;;;;;;13.28;99.02;101419.16;5051227;28;20436;-70
2021/12/30 09:56:36;;;;;;;;;;;;;;;13.31;99.15;101397.56;5052381;28;19936;-70
2021/12/30 09:59:01;;;;;;;;;;;;;;;13.32;98.85;101409.94;5055049;28;19939;-70
2021/12/30 10:01:27;;;;;;;;;;;;;;;13.35;98.77;101399.03;5049859;28;19947;-70
2021/12/30 10:03:56;;;;;;;;;;;;;;;13.35;97.98;101401.72;5052242;28;19916;-70
2021/12/30 10:06:21;;;;;;;;;;;;;;;13.33;98.14;101403.66;5050480;28;20303;-70
2021/12/30 10:08:57;;;;;;;;;;;;;;;13.32;97.81;101392.16;5048764;28;19923;-70
2021/12/30 10:11:23;;;;;;;;;;;;;;;13.34;98.29;101402.69;5053163;28;20345;-70
2021/12/30 10:13:52;;;;;;;;;;;;;;;13.33;98.29;101398.31;5054541;28;19921;-70
2021/12/30 10:16:18;;;;;;;;;;;;;;;13.36;97.79;101406.09;5052586;28;19912;-70
2021/12/30 10:18:48;;;;;;;;;;;;;;;13.35;98.26;101404.38;5035525;28;19921;-70
2021/12/30 10:21:17;;;;;;;;;;;;;;;13.39;97.48;101397.84;5035427;28;19996;-70
2021/12/30 10:23:45;;;;;;;;;;;;;;;13.40;97.78;101407.53;5044611;28;19924;-70
2021/12/30 10:26:10;;;;;;;;;;;;;;;13.41;96.93;101408.41;5054467;28;20518;-69
2021/12/30 10:28:36;;;;;;;;;;;;;;;13.42;96.47;101412.75;5049793;28;20043;-70
2021/12/30 10:31:10;;;;;;;;;;;;;;;13.42;97.00;101415.41;5054848;28;19913;-69
2021/12/30 10:33:37;;;;;;;;;;;;;;;13.43;97.32;101407.28;5053329;28;19913;-69
2021/12/30 10:36:13;;;;;;;;;;;;;;;13.42;97.63;101404.75;5043165;28;19923;-69
2021/12/30 10:38:38;;;;;;;;;;;;;;;13.43;96.76;101401.13;5028214;28;19917;-69
2021/12/30 10:41:03;;;;;;;;;;;;;;;13.43;96.63;101417.97;5035000;28;19913;-69
2021/12/30 10:43:37;;;;;;;;;;;;;;;13.45;96.23;101402.66;5034891;28;20430;-70
2021/12/30 10:46:07;;;;;;;;;;;;;;;13.50;97.12;101408.50;5028351;28;20399;-70
2021/12/30 10:48:33;;;;;;;;;;;;;;;13.59;96.87;101420.28;5034918;28;19924;-69
2021/12/30 10:51:08;;;;;;;;;;;;;;;13.57;96.70;101413.34;5033634;28;20390;-69
2021/12/30 10:53:36;;;;;;;;;;;;;;;13.60;95.94;101410.44;5034537;28;19941;-69
2021/12/30 10:56:17;;;;;;;;;;;;;;;13.60;96.08;101405.94;5034513;28;19913;-69
2021/12/30 10:58:42;;;;;;;;;;;;;;;13.62;94.33;101413.81;5034387;28;20287;-69
2021/12/30 11:01:15;;;;;;;;;;;;;;;13.63;96.12;101405.69;5034520;28;19917;-69
2021/12/30 11:03:42;;;;;;;;;;;;;;;13.63;95.43;101404.84;5034629;28;19917;-69
2021/12/30 11:06:12;;;;;;;;;;;;;;;13.62;94.74;101403.13;5034894;28;19963;-69
2021/12/30 11:08:37;;;;;;;;;;;;;;;13.63;93.86;101402.19;5033549;28;20360;-69
2021/12/30 11:11:21;;;;;;;;;;;;;;;13.63;94.86;101405.69;5034476;28;19920;-69
2021/12/30 11:14:19;;;;;;;;;;;;;;;13.63;95.17;101405.69;5034296;28;19970;-69
2021/12/30 11:17:13;;;;;;;;;;;;;;;13.64;95.02;101409.22;5021774;28;19924;-69
2021/12/30 11:19:41;;;;;;;;;;;;;;;13.64;93.28;101406.56;5033048;28;19952;-69
2021/12/30 11:22:08;;;;;;;;;;;;;;;13.67;95.16;101406.28;5034135;28;19943;-69
2021/12/30 11:24:35;;;;;;;;;;;;;;;13.69;95.08;101399.03;5033960;28;19920;-69
2021/12/30 11:27:01;;;;;;;;;;;;;;;13.72;95.19;101403.25;5034152;28;19939;-69
2021/12/30 11:29:26;;;;;;;;;;;;;;;13.73;95.10;101396.94;5043130;28;19959;-69
2021/12/30 11:31:52;;;;;;;;;;;;;;;13.76;94.81;101386.03;5049725;28;20356;-69
2021/12/30 11:34:21;;;;;;;;;;;;;;;13.77;93.64;101399.25;5034228;28;19967;-68
2021/12/30 11:36:46;;;;;;;;;;;;;;;13.81;94.18;101403.34;5034104;28;19939;-68
2021/12/30 11:39:16;;;;;;;;;;;;;;;13.87;93.88;101410.88;5034183;28;20016;-68
2021/12/30 11:41:43;;;;;;;;;;;;;;;13.90;93.25;101400.91;5034192;28;19913;-68
2021/12/30 11:44:08;;;;;;;;;;;;;;;13.94;93.06;101410.34;5034304;28;19959;-68
2021/12/30 11:46:37;;;;;;;;;;;;;;;13.95;92.00;101401.38;5028238;28;23304;-69
2021/12/30 11:49:02;;;;;;;;;;;;;;;13.98;92.30;101403.81;5034053;28;19913;-69
2021/12/30 11:51:40;;;;;;;;;;;;;;;14.02;92.51;101413.25;5034493;28;19943;-68
2021/12/30 11:54:24;;;;;;;;;;;;;;;14.03;92.86;101405.09;5033998;28;20295;-68
2021/12/30 11:57:09;;;;;;;;;;;;;;;14.09;93.16;101406.44;5034311;28;19964;-68
2021/12/30 11:59:39;;;;;;;;;;;;;;;14.14;93.26;101403.38;5034506;28;20024;-69
2021/12/30 12:02:24;;;;;;;;;;;;;;;14.16;92.86;101410.28;5034567;28;19920;-69
2021/12/30 12:04:49;;;;;;;;;;;;;;;14.26;93.21;101405.03;5033311;28;19923;-68
2021/12/30 12:07:14;;;;;;;;;;;;;;;14.27;93.17;101413.91;5033272;28;20279;-68
2021/12/30 12:09:40;;;;;;;;;;;;;;;14.32;92.83;101409.88;5032939;28;19948;-69
2021/12/30 12:12:10;;;;;;;;;;;;;;;14.31;91.42;101420.69;5031692;28;19917;-69
2021/12/30 12:14:42;;;;;;;;;;;;;;;14.37;92.45;101420.16;5033405;28;19917;-68
2021/12/30 12:17:09;;;;;;;;;;;;;;;14.37;91.81;101436.19;5033439;28;20311;-69
2021/12/30 12:19:41;;;;;;;;;;;;;;;14.37;91.68;101436.19;5049442;28;20322;-69
2021/12/30 12:22:26;;;;;;;;;;;;;;;14.37;90.54;101436.19;5049696;28;20318;-69
2021/12/30 12:25:04;;;;;;;;;;;;;;;14.35;91.11;101430.97;5043235;28;19921;-69
2021/12/30 12:27:31;;;;;;;;;;;;;;;14.34;90.77;101428.44;5036044;28;20003;-69